Jump to content


AMERICAN AIRLINES FLIGHT AA1013 FLOWN ON 03-07-2018 BY CAPTAIN JIM BOERMAN

Pilot StatsCaptain Jim Boerman (LDP136) • 4,945.1 total hours • 1,489 total flights [View Logbook]
FLIGHT DETAILS
StatusReceived and approved on 2018-03-07 at 12:03:23
Origin AirportDallas-Ft Worth Intl (KDFW) • Dallas-Ft Worth, Texas, United States (607 feet MSL)
Filed Flight PlanFLIGHT PLANNER OFFLINE
Destination AirportLa Aurora Intl (MGGT) • Guatemala City, Guatemala (4,951 feet MSL)
Alternate AirportIlopango Intl (MSSS) • San Salvador, El Salvador (2,020 feet MSL)
AirlineAmerican Airlines
AircraftBoeing 737-800 | Winglets (73H / B737-800)
FS Aircraft UsedBoeing 737-823 American N838NN Oneworld
Cruising AltitudeFL330
Distance Flown1,155 nautical miles
Passengers Onboard126 passengers (77.78% full)
DEPARTURE DETAILS
Time Out08:45:56
Taxi Data133,813 lbs total with 22,338 lbs of fuel onboard
Takeoff Data09:00:06 (14 minutes after leaving gate/ramp) • 133,118 lbs total • 8° pitch at 155 knots
Departure METARKDFW 071353Z 35010KT 10SM FEW250 06/M06 A3031 RMK AO2 SLP264 T00611056 $
ARRIVAL DETAILS
Landing Data11:47:47 • 118,894 lbs total • 3° pitch doing 120 knots at a rate of -140.72 feet/minute with 7,123 lbs of fuel onboard
Time In11:56:08 (8 minutes after landing)
Ramp Weight118,598 lbs total
Total Fuel Used15,215 lbs
Total Block Time03:10:11 (3.2 hours) while 23 minutes were spent on the ground
Arrival METARMGGT 071800Z 02010KT 9999 FEW020 25/08 Q1025 A3027
MISCELLANEOUS DETAILS
LiveDISPATCH Version4.8.3.1
FS Version
FSUIPC Version5.12
OS VersionWindows 7 32-bit
Screen Resolution1920 x 1080
Pilot's CommentsNo Comments Reported
FLIGHT MAP